sensor_id;sensor_type;location;lat;lon;timestamp;pressure;altitude;pressure_sealevel;temperature;humidity
929;BME280;451;47.988;7.842;2023-03-23T00:02:13;97919.22;;;14.02;66.45
929;BME280;451;47.988;7.842;2023-03-23T00:11:19;97951.09;;;14.27;66.66
929;BME280;451;47.988;7.842;2023-03-23T00:20:23;97937.78;;;14.73;65.18
929;BME280;451;47.988;7.842;2023-03-23T00:29:31;97928.63;;;14.69;64.87
929;BME280;451;47.988;7.842;2023-03-23T00:38:37;97825.81;;;14.79;58.95
929;BME280;451;47.988;7.842;2023-03-23T00:47:40;97916.34;;;16.25;56.15
929;BME280;451;47.988;7.842;2023-03-23T00:56:50;97906.81;;;16.42;56.09
929;BME280;451;47.988;7.842;2023-03-23T01:05:54;97883.63;;;16.49;55.25
929;BME280;451;47.988;7.842;2023-03-23T01:14:59;97881.97;;;16.73;54.66
929;BME280;451;47.988;7.842;2023-03-23T01:24:02;97873.16;;;16.91;55.64
929;BME280;451;47.988;7.842;2023-03-23T01:33:06;97822.47;;;16.63;56.46
929;BME280;451;47.988;7.842;2023-03-23T01:42:10;97843.53;;;16.76;54.21
929;BME280;451;47.988;7.842;2023-03-23T01:51:16;97833.69;;;17.06;53.30
929;BME280;451;47.988;7.842;2023-03-23T02:00:23;97818.59;;;17.18;52.82
929;BME280;451;47.988;7.842;2023-03-23T02:09:31;97774.09;;;16.90;51.70
929;BME280;451;47.988;7.842;2023-03-23T02:18:51;97791.00;;;17.19;50.32
929;BME280;451;47.988;7.842;2023-03-23T02:28:14;97819.19;;;17.32;50.83
929;BME280;451;47.988;7.842;2023-03-23T02:37:26;97789.88;;;17.39;50.79
929;BME280;451;47.988;7.842;2023-03-23T02:46:30;97779.81;;;17.41;50.03
929;BME280;451;47.988;7.842;2023-03-23T02:55:36;97762.13;;;17.58;50.50
929;BME280;451;47.988;7.842;2023-03-23T03:04:46;97772.34;;;17.61;50.08
929;BME280;451;47.988;7.842;2023-03-23T03:13:55;97769.09;;;17.36;49.95
929;BME280;451;47.988;7.842;2023-03-23T03:23:02;97767.34;;;17.53;49.73
929;BME280;451;47.988;7.842;2023-03-23T03:32:15;97715.22;;;17.52;48.83
929;BME280;451;47.988;7.842;2023-03-23T03:41:20;97771.63;;;17.77;48.76
929;BME280;451;47.988;7.842;2023-03-23T03:50:26;97742.28;;;17.72;48.20
929;BME280;451;47.988;7.842;2023-03-23T03:59:29;97742.19;;;17.67;48.90
929;BME280;451;47.988;7.842;2023-03-23T04:08:58;97754.06;;;17.76;48.47
929;BME280;451;47.988;7.842;2023-03-23T04:18:07;97769.56;;;17.79;48.47
929;BME280;451;47.988;7.842;2023-03-23T04:27:13;97780.41;;;17.89;48.09
929;BME280;451;47.988;7.842;2023-03-23T04:36:18;97765.00;;;18.03;47.82
929;BME280;451;47.988;7.842;2023-03-23T04:45:34;97796.25;;;17.84;48.77
929;BME280;451;47.988;7.842;2023-03-23T04:54:39;97810.22;;;17.68;49.78
929;BME280;451;47.988;7.842;2023-03-23T05:03:44;97658.66;;;16.51;50.45
929;BME280;451;47.988;7.842;2023-03-23T05:12:48;97823.28;;;17.58;50.26
929;BME280;451;47.988;7.842;2023-03-23T05:21:56;97825.22;;;17.27;51.53
929;BME280;451;47.988;7.842;2023-03-23T05:31:06;97803.31;;;17.02;52.11
929;BME280;451;47.988;7.842;2023-03-23T05:40:12;97822.81;;;16.96;53.06
929;BME280;451;47.988;7.842;2023-03-23T05:49:19;97842.72;;;17.05;53.05
929;BME280;451;47.988;7.842;2023-03-23T05:58:25;97856.81;;;16.76;54.31
929;BME280;451;47.988;7.842;2023-03-23T06:07:28;97893.59;;;16.90;54.25
929;BME280;451;47.988;7.842;2023-03-23T06:16:40;97891.63;;;16.68;57.03
929;BME280;451;47.988;7.842;2023-03-23T06:25:46;97839.34;;;16.13;58.80
929;BME280;451;47.988;7.842;2023-03-23T06:34:51;97877.31;;;16.32;59.93
929;BME280;451;47.988;7.842;2023-03-23T06:44:14;97868.31;;;16.51;58.42
929;BME280;451;47.988;7.842;2023-03-23T06:53:19;97897.59;;;16.63;58.01
929;BME280;451;47.988;7.842;2023-03-23T07:02:24;97899.13;;;16.34;57.81
929;BME280;451;47.988;7.842;2023-03-23T07:11:30;97935.81;;;16.37;58.39
929;BME280;451;47.988;7.842;2023-03-23T07:20:38;97908.66;;;16.60;58.19
929;BME280;451;47.988;7.842;2023-03-23T07:29:43;97935.81;;;16.37;66.99
929;BME280;451;47.988;7.842;2023-03-23T07:38:58;97950.09;;;16.18;69.15
929;BME280;451;47.988;7.842;2023-03-23T07:48:03;97961.78;;;15.61;75.67
929;BME280;451;47.988;7.842;2023-03-23T07:57:07;97969.38;;;15.13;83.95
929;BME280;451;47.988;7.842;2023-03-23T08:06:16;97977.47;;;14.80;84.56
929;BME280;451;47.988;7.842;2023-03-23T08:15:33;97882.59;;;14.06;87.71
929;BME280;451;47.988;7.842;2023-03-23T08:24:56;97986.53;;;15.04;96.27
929;BME280;451;47.988;7.842;2023-03-23T08:34:32;98008.72;;;15.47;99.27
929;BME280;451;47.988;7.842;2023-03-23T08:43:47;97994.19;;;15.88;97.06
929;BME280;451;47.988;7.842;2023-03-23T08:53:09;98000.00;;;16.03;98.56
929;BME280;451;47.988;7.842;2023-03-23T09:02:33;98013.47;;;16.26;96.78
929;BME280;451;47.988;7.842;2023-03-23T09:11:56;97994.25;;;16.31;97.02
929;BME280;451;47.988;7.842;2023-03-23T09:21:01;98030.63;;;16.91;90.43
929;BME280;451;47.988;7.842;2023-03-23T09:30:06;97885.41;;;16.55;84.68
929;BME280;451;47.988;7.842;2023-03-23T09:39:11;97995.75;;;18.07;78.36
929;BME280;451;47.988;7.842;2023-03-23T09:48:27;97998.66;;;16.62;72.47
929;BME280;451;47.988;7.842;2023-03-23T09:57:40;97942.34;;;16.78;67.68
929;BME280;451;47.988;7.842;2023-03-23T10:06:45;97997.16;;;17.39;63.89
929;BME280;451;47.988;7.842;2023-03-23T10:15:50;97993.00;;;17.61;63.04
929;BME280;451;47.988;7.842;2023-03-23T10:24:59;97997.06;;;18.63;58.01
929;BME280;451;47.988;7.842;2023-03-23T10:34:10;97992.91;;;19.76;54.68
929;BME280;451;47.988;7.842;2023-03-23T10:43:15;97976.97;;;19.64;53.49
929;BME280;451;47.988;7.842;2023-03-23T10:52:31;97977.00;;;20.14;53.14
929;BME280;451;47.988;7.842;2023-03-23T11:01:36;97986.78;;;19.92;51.77
929;BME280;451;47.988;7.842;2023-03-23T11:10:48;97956.84;;;19.73;52.09
929;BME280;451;47.988;7.842;2023-03-23T11:19:52;97868.44;;;19.19;51.22
929;BME280;451;47.988;7.842;2023-03-23T11:28:59;97999.66;;;20.28;51.73
929;BME280;451;47.988;7.842;2023-03-23T11:38:02;97994.38;;;20.00;51.04
929;BME280;451;47.988;7.842;2023-03-23T11:47:17;98006.94;;;20.16;51.50
929;BME280;451;47.988;7.842;2023-03-23T11:56:24;97998.88;;;21.26;49.49
929;BME280;451;47.988;7.842;2023-03-23T12:05:34;97985.06;;;20.91;50.21
929;BME280;451;47.988;7.842;2023-03-23T12:14:47;97975.78;;;20.77;50.53
929;BME280;451;47.988;7.842;2023-03-23T12:24:00;97977.63;;;19.88;50.78
929;BME280;451;47.988;7.842;2023-03-23T12:33:25;97961.63;;;20.21;49.77
929;BME280;451;47.988;7.842;2023-03-23T12:42:39;97966.47;;;20.24;50.13
929;BME280;451;47.988;7.842;2023-03-23T12:51:48;97938.56;;;19.82;50.79
929;BME280;451;47.988;7.842;2023-03-23T13:00:57;97883.59;;;18.50;52.23
929;BME280;451;47.988;7.842;2023-03-23T13:10:05;97952.69;;;19.37;51.63
929;BME280;451;47.988;7.842;2023-03-23T13:19:18;97947.19;;;19.55;51.87
929;BME280;451;47.988;7.842;2023-03-23T13:28:25;97948.84;;;19.90;51.43
929;BME280;451;47.988;7.842;2023-03-23T13:37:32;97944.81;;;19.42;52.19
929;BME280;451;47.988;7.842;2023-03-23T13:46:35;97934.50;;;19.62;52.27
929;BME280;451;47.988;7.842;2023-03-23T13:55:42;97922.53;;;18.91;51.52
929;BME280;451;47.988;7.842;2023-03-23T14:04:50;97917.50;;;19.35;50.74
929;BME280;451;47.988;7.842;2023-03-23T14:14:03;97901.94;;;19.15;51.80
929;BME280;451;47.988;7.842;2023-03-23T14:23:15;97877.59;;;18.32;51.29
929;BME280;451;47.988;7.842;2023-03-23T14:32:20;97796.69;;;17.81;51.65
929;BME280;451;47.988;7.842;2023-03-23T14:41:29;97888.09;;;18.73;51.23
929;BME280;451;47.988;7.842;2023-03-23T14:50:39;97869.19;;;18.75;52.34
929;BME280;451;47.988;7.842;2023-03-23T14:59:44;97752.06;;;18.35;51.20
929;BME280;451;47.988;7.842;2023-03-23T15:08:50;97836.69;;;19.18;51.44
929;BME280;451;47.988;7.842;2023-03-23T15:17:56;97834.44;;;19.10;51.59
929;BME280;451;47.988;7.842;2023-03-23T15:27:12;97860.81;;;19.56;51.24
929;BME280;451;47.988;7.842;2023-03-23T15:36:17;97856.09;;;19.30;52.33
929;BME280;451;47.988;7.842;2023-03-23T15:45:24;97727.34;;;18.79;51.46
929;BME280;451;47.988;7.842;2023-03-23T15:54:30;97850.94;;;19.40;50.91
929;BME280;451;47.988;7.842;2023-03-23T16:03:38;97847.19;;;19.24;50.89
929;BME280;451;47.988;7.842;2023-03-23T16:12:41;97850.00;;;18.73;52.16
929;BME280;451;47.988;7.842;2023-03-23T16:21:46;97854.66;;;18.94;52.27
929;BME280;451;47.988;7.842;2023-03-23T16:30:49;97843.44;;;18.92;51.55
929;BME280;451;47.988;7.842;2023-03-23T16:39:54;97856.78;;;18.40;52.33
929;BME280;451;47.988;7.842;2023-03-23T16:48:57;97664.19;;;17.03;52.74
929;BME280;451;47.988;7.842;2023-03-23T16:58:01;97833.09;;;18.16;52.53
929;BME280;451;47.988;7.842;2023-03-23T17:07:05;97823.69;;;18.25;53.36
929;BME280;451;47.988;7.842;2023-03-23T17:16:09;97844.53;;;18.28;53.65
929;BME280;451;47.988;7.842;2023-03-23T17:25:12;97842.81;;;18.22;54.44
929;BME280;451;47.988;7.842;2023-03-23T17:34:17;97826.41;;;18.01;53.65
929;BME280;451;47.988;7.842;2023-03-23T17:43:20;97849.38;;;18.42;52.90
929;BME280;451;47.988;7.842;2023-03-23T17:52:25;97840.91;;;18.57;51.95
929;BME280;451;47.988;7.842;2023-03-23T18:01:28;97843.59;;;18.85;51.40
929;BME280;451;47.988;7.842;2023-03-23T18:10:34;97838.59;;;18.37;52.23
929;BME280;451;47.988;7.842;2023-03-23T18:19:37;97824.03;;;18.40;51.76
929;BME280;451;47.988;7.842;2023-03-23T18:28:42;97808.06;;;18.40;51.39
929;BME280;451;47.988;7.842;2023-03-23T18:37:45;97824.41;;;18.72;51.14
929;BME280;451;47.988;7.842;2023-03-23T18:46:49;97828.84;;;17.91;53.01
929;BME280;451;47.988;7.842;2023-03-23T18:56:02;97823.19;;;17.76;53.60
929;BME280;451;47.988;7.842;2023-03-23T19:05:08;97816.00;;;17.42;55.70
929;BME280;451;47.988;7.842;2023-03-23T19:14:11;97831.22;;;17.34;57.33
929;BME280;451;47.988;7.842;2023-03-23T19:23:16;97788.09;;;17.09;57.95
929;BME280;451;47.988;7.842;2023-03-23T19:32:19;97797.00;;;17.15;58.65
929;BME280;451;47.988;7.842;2023-03-23T19:41:24;97786.88;;;17.23;58.65
929;BME280;451;47.988;7.842;2023-03-23T19:50:28;97770.91;;;17.23;58.38
929;BME280;451;47.988;7.842;2023-03-23T19:59:33;97760.94;;;17.07;59.05
929;BME280;451;47.988;7.842;2023-03-23T20:08:39;97722.66;;;16.43;61.10
929;BME280;451;47.988;7.842;2023-03-23T20:17:44;97746.81;;;16.72;61.15
929;BME280;451;47.988;7.842;2023-03-23T20:26:48;97726.69;;;16.34;62.85
929;BME280;451;47.988;7.842;2023-03-23T20:35:53;97698.34;;;16.46;61.32
929;BME280;451;47.988;7.842;2023-03-23T20:44:56;97702.88;;;16.58;61.67
929;BME280;451;47.988;7.842;2023-03-23T20:54:01;97715.66;;;16.79;60.24
929;BME280;451;47.988;7.842;2023-03-23T21:03:05;97711.25;;;16.73;60.73
929;BME280;451;47.988;7.842;2023-03-23T21:12:10;97666.25;;;16.78;60.76
929;BME280;451;47.988;7.842;2023-03-23T21:21:13;97645.34;;;16.70;60.76
929;BME280;451;47.988;7.842;2023-03-23T21:30:21;97651.03;;;16.85;62.09
929;BME280;451;47.988;7.842;2023-03-23T21:39:24;97551.75;;;15.86;63.11
929;BME280;451;47.988;7.842;2023-03-23T21:48:29;97633.28;;;16.44;64.32
929;BME280;451;47.988;7.842;2023-03-23T21:57:33;97632.94;;;16.40;63.90
929;BME280;451;47.988;7.842;2023-03-23T22:06:39;97519.50;;;16.12;61.88
929;BME280;451;47.988;7.842;2023-03-23T22:15:43;97584.22;;;16.23;62.13
929;BME280;451;47.988;7.842;2023-03-23T22:24:49;97633.69;;;16.71;62.49
929;BME280;451;47.988;7.842;2023-03-23T22:33:55;97652.16;;;17.12;61.34
929;BME280;451;47.988;7.842;2023-03-23T22:42:59;97669.00;;;16.60;62.56
929;BME280;451;47.988;7.842;2023-03-23T22:52:04;97542.38;;;15.24;64.69
929;BME280;451;47.988;7.842;2023-03-23T23:01:11;97578.53;;;15.48;65.51
929;BME280;451;47.988;7.842;2023-03-23T23:10:15;97634.34;;;16.13;64.31
929;BME280;451;47.988;7.842;2023-03-23T23:19:19;97613.06;;;16.31;63.37
929;BME280;451;47.988;7.842;2023-03-23T23:28:23;97614.03;;;16.48;63.55
929;BME280;451;47.988;7.842;2023-03-23T23:37:28;97593.84;;;16.06;64.91
929;BME280;451;47.988;7.842;2023-03-23T23:46:31;97512.47;;;16.18;58.55
929;BME280;451;47.988;7.842;2023-03-23T23:55:37;97566.59;;;17.62;54.68
